Time;durP1;ratioP1;P1;durP2;ratioP2;P2;SDS_P1;SDS_P2;PMS_P1;PMS_P2;Temp;Humidity;BMP_temperature;BMP_pressure;BME280_temperature;BME280_humidity;BME280_pressure;Samples;Min_cycle;Max_cycle;Signal;HPM_P1;HPM_P2
2022/05/01 00:00:27;;;;;;;;;50.50;39.50;;;;;;;;5017576;28;9384;-64
2022/05/01 00:02:54;;;;;;;;;47.00;38.25;;;;;;;;5017678;28;8739;-65
2022/05/01 00:05:21;;;;;;;;;47.25;39.00;;;;;;;;5017255;28;9463;-64
2022/05/01 00:07:49;;;;;;;;;43.75;36.75;;;;;;;;5035826;28;8829;-65
2022/05/01 00:10:16;;;;;;;;;47.25;39.50;;;;;;;;5037876;28;9413;-65
2022/05/01 00:12:43;;;;;;;;;43.75;36.75;;;;;;;;5052288;28;8832;-65
2022/05/01 00:15:10;;;;;;;;;53.25;41.25;;;;;;;;5037254;28;8788;-64
2022/05/01 00:17:37;;;;;;;;;44.00;36.75;;;;;;;;5036738;28;9453;-64
2022/05/01 00:20:07;;;;;;;;;43.00;36.67;;;;;;;;5037001;28;8783;-65
2022/05/01 00:22:34;;;;;;;;;49.75;40.00;;;;;;;;5032768;28;8802;-65
2022/05/01 00:25:00;;;;;;;;;45.50;37.00;;;;;;;;4989671;28;8756;-64
2022/05/01 00:27:27;;;;;;;;;46.25;36.50;;;;;;;;4997659;28;8770;-63
2022/05/01 00:29:57;;;;;;;;;40.75;33.00;;;;;;;;5017678;28;8775;-64
2022/05/01 00:32:23;;;;;;;;;43.00;35.25;;;;;;;;5017182;28;8791;-64
2022/05/01 00:37:35;;;;;;;;;47.00;38.00;;;;;;;;5022171;28;8754;-64
2022/05/01 00:40:02;;;;;;;;;44.75;35.50;;;;;;;;5037552;28;8766;-64
2022/05/01 00:42:29;;;;;;;;;44.75;36.50;;;;;;;;5036808;28;8792;-64
2022/05/01 00:44:55;;;;;;;;;39.50;33.00;;;;;;;;5036917;28;8792;-65
2022/05/01 00:47:22;;;;;;;;;41.25;34.00;;;;;;;;5019302;28;8785;-64
2022/05/01 00:49:49;;;;;;;;;44.50;35.25;;;;;;;;5036014;28;8756;-65
2022/05/01 00:52:16;;;;;;;;;44.00;33.75;;;;;;;;5019446;28;8789;-64
2022/05/01 00:54:43;;;;;;;;;44.25;37.25;;;;;;;;5036557;28;8757;-64
2022/05/01 00:57:10;;;;;;;;;44.50;36.50;;;;;;;;5036677;28;8777;-64
2022/05/01 00:59:37;;;;;;;;;41.00;34.25;;;;;;;;5035564;28;8801;-65
2022/05/01 01:02:04;;;;;;;;;38.50;34.25;;;;;;;;5036702;28;8777;-64
2022/05/01 01:04:31;;;;;;;;;43.50;35.50;;;;;;;;5035974;28;8878;-64
2022/05/01 01:06:58;;;;;;;;;46.50;37.00;;;;;;;;5037159;28;8757;-64
2022/05/01 01:09:24;;;;;;;;;34.75;32.50;;;;;;;;5038917;28;8761;-64
2022/05/01 01:14:36;;;;;;;;;39.00;33.25;;;;;;;;5040349;28;8762;-64
2022/05/01 01:17:04;;;;;;;;;43.75;36.25;;;;;;;;5040469;28;8762;-64
2022/05/01 01:19:30;;;;;;;;;36.50;31.50;;;;;;;;5040207;28;8840;-65
2022/05/01 01:21:57;;;;;;;;;37.50;31.50;;;;;;;;5040653;28;8843;-64
2022/05/01 01:24:24;;;;;;;;;41.75;32.00;;;;;;;;5039867;28;8785;-64
2022/05/01 01:26:53;;;;;;;;;41.25;34.25;;;;;;;;5022710;28;8762;-64
2022/05/01 01:32:05;;;;;;;;;41.75;36.50;;;;;;;;5019521;28;8807;-64
2022/05/01 01:34:33;;;;;;;;;36.75;32.25;;;;;;;;5019338;28;8763;-64
2022/05/01 01:37:00;;;;;;;;;35.00;31.75;;;;;;;;5020612;28;8774;-64
2022/05/01 01:39:27;;;;;;;;;29.75;29.50;;;;;;;;5036145;28;8775;-64
2022/05/01 01:41:54;;;;;;;;;37.50;34.00;;;;;;;;5020620;28;8778;-65
2022/05/01 01:44:21;;;;;;;;;39.25;33.75;;;;;;;;5003480;28;8759;-63
2022/05/01 01:46:48;;;;;;;;;30.00;28.00;;;;;;;;5020766;28;8767;-64
2022/05/01 01:49:15;;;;;;;;;41.75;34.00;;;;;;;;5021419;28;8751;-64
2022/05/01 01:51:41;;;;;;;;;32.25;30.50;;;;;;;;5019258;28;8794;-65
2022/05/01 01:54:08;;;;;;;;;36.25;31.50;;;;;;;;5019023;28;8837;-64
2022/05/01 01:56:36;;;;;;;;;34.50;32.50;;;;;;;;5019854;28;8758;-65
2022/05/01 01:59:03;;;;;;;;;37.75;32.75;;;;;;;;5019961;28;8779;-64
2022/05/01 02:01:30;;;;;;;;;31.00;25.25;;;;;;;;5019600;28;8755;-64
2022/05/01 02:03:57;;;;;;;;;27.25;24.75;;;;;;;;5020582;28;8735;-64
2022/05/01 02:06:23;;;;;;;;;34.50;30.00;;;;;;;;5019689;28;8747;-63
2022/05/01 02:08:50;;;;;;;;;34.75;31.75;;;;;;;;5020049;28;9031;-65
2022/05/01 02:11:17;;;;;;;;;42.25;33.50;;;;;;;;5020047;28;8779;-64
2022/05/01 02:13:44;;;;;;;;;35.75;32.00;;;;;;;;5019589;28;8897;-65
2022/05/01 02:16:11;;;;;;;;;38.75;33.00;;;;;;;;5020380;28;8747;-65
2022/05/01 02:18:37;;;;;;;;;37.75;32.00;;;;;;;;5019691;28;8805;-64
2022/05/01 02:23:49;;;;;;;;;41.50;34.25;;;;;;;;5018283;28;8767;-64
2022/05/01 02:26:16;;;;;;;;;38.75;33.25;;;;;;;;5019599;28;8755;-65
2022/05/01 02:28:42;;;;;;;;;39.75;33.75;;;;;;;;5031594;28;8742;-65
2022/05/01 02:31:09;;;;;;;;;38.75;31.25;;;;;;;;5039591;28;8762;-65
2022/05/01 02:33:37;;;;;;;;;33.25;31.50;;;;;;;;5038521;28;8758;-65
2022/05/01 02:36:07;;;;;;;;;38.50;33.25;;;;;;;;5022033;28;8749;-65
2022/05/01 02:38:34;;;;;;;;;36.50;32.75;;;;;;;;5038913;28;8745;-65
2022/05/01 02:41:02;;;;;;;;;30.75;29.00;;;;;;;;5039247;28;8862;-65
2022/05/01 02:43:29;;;;;;;;;35.75;32.00;;;;;;;;5038683;28;8753;-64
2022/05/01 02:45:56;;;;;;;;;36.50;31.75;;;;;;;;5039604;28;8753;-65
2022/05/01 02:48:26;;;;;;;;;35.00;30.25;;;;;;;;5038225;28;8730;-64
2022/05/01 02:50:53;;;;;;;;;34.00;31.75;;;;;;;;5021038;28;9444;-65
2022/05/01 02:53:19;;;;;;;;;36.25;33.50;;;;;;;;5038443;28;8726;-64
2022/05/01 02:55:46;;;;;;;;;40.50;32.50;;;;;;;;5038989;28;8781;-65
2022/05/01 02:58:13;;;;;;;;;36.50;30.75;;;;;;;;5039497;28;8714;-64
2022/05/01 03:00:40;;;;;;;;;31.25;29.50;;;;;;;;5038826;28;8769;-65
2022/05/01 03:03:07;;;;;;;;;41.50;32.75;;;;;;;;5028176;28;8773;-64
2022/05/01 03:05:34;;;;;;;;;39.50;30.50;;;;;;;;5020874;28;8777;-64
2022/05/01 03:08:00;;;;;;;;;33.25;29.75;;;;;;;;5038419;28;8879;-64
2022/05/01 03:10:27;;;;;;;;;42.25;33.00;;;;;;;;5020183;28;8850;-64
2022/05/01 03:12:54;;;;;;;;;31.50;29.25;;;;;;;;5038927;28;8808;-64
2022/05/01 03:15:24;;;;;;;;;35.00;32.00;;;;;;;;5058195;28;8782;-64
2022/05/01 03:23:20;;;;;;;;;34.00;31.50;;;;;;;;5041065;28;8775;-64
2022/05/01 03:25:47;;;;;;;;;34.50;30.50;;;;;;;;5018350;28;8766;-64
2022/05/01 03:28:14;;;;;;;;;40.75;33.25;;;;;;;;5018841;28;8857;-65
2022/05/01 03:30:41;;;;;;;;;34.50;32.50;;;;;;;;5026190;28;8741;-64
2022/05/01 03:33:08;;;;;;;;;30.25;26.50;;;;;;;;5023597;28;8795;-64
2022/05/01 03:35:38;;;;;;;;;36.75;32.25;;;;;;;;5017542;28;8953;-64
2022/05/01 03:38:06;;;;;;;;;37.00;30.50;;;;;;;;5010947;28;8819;-64
2022/05/01 03:40:36;;;;;;;;;33.25;30.25;;;;;;;;4998017;28;8777;-63
2022/05/01 03:43:03;;;;;;;;;33.50;30.25;;;;;;;;4998754;28;8745;-64
2022/05/01 03:45:30;;;;;;;;;39.25;33.50;;;;;;;;4997750;28;9473;-64
2022/05/01 03:47:57;;;;;;;;;33.75;31.25;;;;;;;;4996990;28;8761;-64
2022/05/01 03:50:24;;;;;;;;;35.00;31.75;;;;;;;;4997743;28;9454;-64
2022/05/01 03:52:51;;;;;;;;;34.50;31.50;;;;;;;;5002630;28;8771;-65
2022/05/01 03:55:17;;;;;;;;;37.25;32.75;;;;;;;;5018090;28;8740;-63
2022/05/01 03:57:44;;;;;;;;;35.50;32.75;;;;;;;;5019646;28;8767;-64
2022/05/01 04:00:18;;;;;;;;;35.75;30.50;;;;;;;;5022796;28;8782;-64
2022/05/01 04:02:45;;;;;;;;;36.25;30.00;;;;;;;;5017375;28;8905;-65
2022/05/01 04:05:15;;;;;;;;;34.25;32.50;;;;;;;;5016256;28;8767;-64
2022/05/01 04:07:42;;;;;;;;;39.75;32.00;;;;;;;;5013728;28;8713;-64
2022/05/01 04:10:09;;;;;;;;;34.25;30.25;;;;;;;;4998025;28;8907;-65
2022/05/01 04:12:39;;;;;;;;;33.25;29.00;;;;;;;;4996051;28;8773;-64
2022/05/01 04:15:09;;;;;;;;;37.00;34.00;;;;;;;;4997642;28;8776;-65
2022/05/01 04:17:40;;;;;;;;;37.25;31.75;;;;;;;;4997405;28;8769;-65
2022/05/01 04:20:10;;;;;;;;;31.75;30.75;;;;;;;;4997787;28;8768;-64
2022/05/01 04:22:38;;;;;;;;;32.75;30.00;;;;;;;;4991926;28;8763;-65
2022/05/01 04:25:06;;;;;;;;;36.75;32.25;;;;;;;;5014915;28;8766;-65
2022/05/01 04:27:32;;;;;;;;;34.75;31.50;;;;;;;;5016364;28;8762;-65
2022/05/01 04:29:59;;;;;;;;;36.25;33.75;;;;;;;;5016622;28;8739;-65
2022/05/01 04:32:26;;;;;;;;;35.00;32.25;;;;;;;;5016606;28;9629;-65
2022/05/01 04:34:54;;;;;;;;;29.25;29.25;;;;;;;;5017075;28;8771;-65
2022/05/01 04:37:22;;;;;;;;;38.25;32.50;;;;;;;;5016460;28;8723;-65
2022/05/01 04:39:48;;;;;;;;;41.75;35.00;;;;;;;;5002808;28;8796;-65
2022/05/01 04:42:15;;;;;;;;;31.75;30.00;;;;;;;;4997011;28;8742;-64
2022/05/01 04:44:43;;;;;;;;;39.75;33.25;;;;;;;;4979730;28;8757;-65
2022/05/01 04:47:10;;;;;;;;;36.00;32.75;;;;;;;;4997380;28;8896;-65
2022/05/01 04:49:37;;;;;;;;;38.00;32.00;;;;;;;;4997054;28;8749;-64
2022/05/01 04:52:03;;;;;;;;;33.25;31.00;;;;;;;;4997800;28;9465;-65
2022/05/01 04:54:30;;;;;;;;;35.00;31.50;;;;;;;;5014922;28;8787;-64
2022/05/01 04:57:08;;;;;;;;;37.25;29.00;;;;;;;;5016693;28;8735;-65
2022/05/01 04:59:34;;;;;;;;;35.00;32.75;;;;;;;;5016581;28;8751;-64
2022/05/01 05:02:01;;;;;;;;;38.25;32.50;;;;;;;;5016618;28;8798;-65
2022/05/01 05:04:28;;;;;;;;;36.75;31.75;;;;;;;;5031299;28;8774;-64
2022/05/01 05:06:55;;;;;;;;;40.00;32.25;;;;;;;;5017018;28;8739;-65
2022/05/01 05:12:07;;;;;;;;;39.00;30.75;;;;;;;;4996829;28;8777;-65
2022/05/01 05:14:34;;;;;;;;;31.75;31.00;;;;;;;;4979559;28;8882;-65
2022/05/01 05:17:01;;;;;;;;;34.75;30.75;;;;;;;;4980003;28;8808;-65
2022/05/01 05:19:28;;;;;;;;;23.75;21.75;;;;;;;;4995298;28;8749;-65
2022/05/01 05:21:55;;;;;;;;;33.75;31.75;;;;;;;;4997394;28;8756;-65
2022/05/01 05:24:22;;;;;;;;;38.25;31.75;;;;;;;;5013683;28;8735;-65
2022/05/01 05:26:49;;;;;;;;;32.25;30.50;;;;;;;;5016446;28;9376;-65
2022/05/01 05:29:15;;;;;;;;;40.00;32.25;;;;;;;;5016452;28;8809;-65
2022/05/01 05:31:42;;;;;;;;;40.75;34.00;;;;;;;;5015138;28;8728;-65
2022/05/01 05:34:09;;;;;;;;;33.00;31.00;;;;;;;;5017256;28;8762;-65
2022/05/01 05:36:36;;;;;;;;;32.50;31.00;;;;;;;;5007933;28;8785;-65
2022/05/01 05:39:02;;;;;;;;;33.00;29.50;;;;;;;;5001461;28;9150;-64
2022/05/01 05:41:29;;;;;;;;;33.50;31.00;;;;;;;;4996531;28;8975;-65
2022/05/01 05:43:56;;;;;;;;;37.50;32.25;;;;;;;;4996807;28;8773;-64
2022/05/01 05:46:22;;;;;;;;;30.75;29.00;;;;;;;;4996978;28;8738;-64
2022/05/01 05:48:49;;;;;;;;;39.75;34.50;;;;;;;;4996605;28;8868;-65
2022/05/01 05:51:16;;;;;;;;;37.75;33.00;;;;;;;;4995577;28;8773;-65
2022/05/01 05:53:43;;;;;;;;;40.50;34.00;;;;;;;;5008218;28;9396;-65
2022/05/01 05:56:09;;;;;;;;;41.00;35.00;;;;;;;;5019774;28;8759;-64
2022/05/01 05:58:36;;;;;;;;;36.50;32.50;;;;;;;;5020040;28;8751;-65
2022/05/01 06:01:03;;;;;;;;;37.25;32.25;;;;;;;;5035425;28;8746;-65
2022/05/01 06:03:30;;;;;;;;;38.00;35.00;;;;;;;;5019409;28;8814;-64
2022/05/01 06:05:57;;;;;;;;;40.00;33.50;;;;;;;;5019668;28;8762;-65
2022/05/01 06:08:23;;;;;;;;;33.25;32.00;;;;;;;;5008725;28;8761;-65
2022/05/01 06:10:50;;;;;;;;;39.25;34.25;;;;;;;;4999892;28;8753;-65
2022/05/01 06:13:17;;;;;;;;;43.50;34.00;;;;;;;;4998709;28;8876;-63
2022/05/01 06:15:44;;;;;;;;;44.25;35.75;;;;;;;;5000053;28;8748;-65
2022/05/01 06:18:11;;;;;;;;;32.75;30.75;;;;;;;;4999612;28;8785;-65
2022/05/01 06:20:38;;;;;;;;;36.50;33.50;;;;;;;;4982281;28;8801;-65
2022/05/01 06:23:05;;;;;;;;;41.50;35.25;;;;;;;;5006569;28;8941;-65
2022/05/01 06:25:31;;;;;;;;;38.00;34.50;;;;;;;;5017751;28;8727;-64
2022/05/01 06:27:58;;;;;;;;;41.00;35.50;;;;;;;;5014880;28;8773;-65
2022/05/01 06:30:25;;;;;;;;;35.00;32.50;;;;;;;;4999896;28;8746;-64
2022/05/01 06:32:51;;;;;;;;;36.50;32.50;;;;;;;;4999532;28;8906;-65
2022/05/01 06:35:18;;;;;;;;;40.75;34.75;;;;;;;;4999525;28;8757;-64
2022/05/01 06:37:45;;;;;;;;;34.75;32.00;;;;;;;;4995764;28;8808;-65
2022/05/01 06:40:12;;;;;;;;;24.00;23.00;;;;;;;;4995482;28;8804;-65
2022/05/01 06:42:39;;;;;;;;;31.33;31.00;;;;;;;;4994847;28;8794;-65
2022/05/01 06:45:05;;;;;;;;;35.75;32.50;;;;;;;;4980245;28;8861;-65
2022/05/01 06:47:32;;;;;;;;;9.75;8.00;;;;;;;;4979555;28;8799;-64
2022/05/01 06:49:59;;;;;;;;;30.50;29.25;;;;;;;;4980186;28;8760;-65
2022/05/01 06:52:26;;;;;;;;;31.50;29.75;;;;;;;;4980943;28;8799;-64
2022/05/01 06:54:55;;;;;;;;;33.50;31.00;;;;;;;;5031541;28;8750;-65
2022/05/01 06:57:22;;;;;;;;;42.00;33.25;;;;;;;;4999017;28;8754;-65
2022/05/01 06:59:49;;;;;;;;;34.75;31.25;;;;;;;;4999230;28;8891;-65
2022/05/01 07:02:16;;;;;;;;;30.50;30.00;;;;;;;;5030596;28;8839;-65
2022/05/01 07:04:42;;;;;;;;;36.00;31.75;;;;;;;;4998696;28;9403;-65
2022/05/01 07:07:09;;;;;;;;;33.75;30.25;;;;;;;;4998964;28;8741;-65
2022/05/01 07:09:36;;;;;;;;;31.25;30.25;;;;;;;;4979819;28;8855;-65
2022/05/01 07:12:03;;;;;;;;;34.00;30.50;;;;;;;;4979229;28;8768;-65
2022/05/01 07:14:30;;;;;;;;;35.25;30.25;;;;;;;;5004974;28;8798;-64
2022/05/01 07:16:56;;;;;;;;;32.50;30.00;;;;;;;;4978233;28;8802;-65
2022/05/01 07:19:23;;;;;;;;;36.00;31.75;;;;;;;;4979761;28;8815;-65
2022/05/01 07:21:51;;;;;;;;;43.00;34.00;;;;;;;;4979845;28;8760;-65
2022/05/01 07:24:18;;;;;;;;;30.50;29.00;;;;;;;;5024649;28;8708;-63
2022/05/01 07:26:45;;;;;;;;;38.75;31.50;;;;;;;;5038011;28;8740;-65
2022/05/01 07:29:12;;;;;;;;;31.75;28.25;;;;;;;;5050814;28;8742;-65
2022/05/01 07:31:39;;;;;;;;;36.50;31.25;;;;;;;;5057530;28;8755;-65
2022/05/01 07:34:06;;;;;;;;;36.75;32.75;;;;;;;;5058277;28;8767;-65
2022/05/01 07:36:32;;;;;;;;;31.25;29.00;;;;;;;;5057395;28;8771;-65
2022/05/01 07:38:59;;;;;;;;;35.75;31.25;;;;;;;;5012932;28;8777;-65
2022/05/01 07:41:27;;;;;;;;;37.25;31.50;;;;;;;;5032870;28;8798;-65
2022/05/01 07:43:55;;;;;;;;;36.75;33.75;;;;;;;;5016617;28;8802;-65
2022/05/01 07:46:22;;;;;;;;;32.75;28.75;;;;;;;;5017101;28;8767;-65
2022/05/01 07:48:49;;;;;;;;;35.25;32.00;;;;;;;;5033166;28;8783;-65
2022/05/01 07:51:16;;;;;;;;;38.50;32.25;;;;;;;;5037541;28;8907;-65
2022/05/01 07:53:43;;;;;;;;;37.00;31.25;;;;;;;;5036792;28;8796;-65
2022/05/01 07:56:10;;;;;;;;;36.25;31.50;;;;;;;;5028537;28;8816;-65
2022/05/01 07:58:37;;;;;;;;;37.00;33.00;;;;;;;;5037117;28;8787;-65
2022/05/01 08:01:04;;;;;;;;;39.75;31.00;;;;;;;;5037787;28;8736;-65
2022/05/01 08:06:15;;;;;;;;;31.00;30.00;;;;;;;;5012070;28;8763;-65
2022/05/01 08:08:42;;;;;;;;;30.50;28.50;;;;;;;;5017106;28;8770;-65
2022/05/01 08:11:10;;;;;;;;;35.25;31.75;;;;;;;;5030394;28;8770;-65
2022/05/01 08:13:37;;;;;;;;;34.25;30.75;;;;;;;;5015781;28;8987;-65
2022/05/01 08:16:04;;;;;;;;;33.25;30.25;;;;;;;;5016893;28;8735;-65
2022/05/01 08:21:17;;;;;;;;;33.50;29.25;;;;;;;;5017207;28;8763;-65
2022/05/01 08:23:43;;;;;;;;;30.75;28.50;;;;;;;;5005305;28;8765;-65
2022/05/01 08:26:11;;;;;;;;;31.00;28.25;;;;;;;;4980361;28;8781;-65
2022/05/01 08:28:38;;;;;;;;;27.75;25.50;;;;;;;;4996714;28;8790;-65
2022/05/01 08:31:05;;;;;;;;;28.00;24.25;;;;;;;;4998168;28;8741;-65
2022/05/01 08:33:32;;;;;;;;;29.50;26.25;;;;;;;;4980017;28;9422;-65
2022/05/01 08:36:02;;;;;;;;;30.75;28.50;;;;;;;;4997296;28;8861;-65
2022/05/01 08:38:29;;;;;;;;;32.25;29.00;;;;;;;;4989637;28;8782;-65
2022/05/01 08:40:56;;;;;;;;;32.25;29.75;;;;;;;;5016937;28;8751;-65
2022/05/01 08:43:24;;;;;;;;;28.25;26.75;;;;;;;;5017219;28;8763;-64
2022/05/01 08:45:53;;;;;;;;;30.25;25.50;;;;;;;;5019477;28;8792;-65
2022/05/01 08:48:40;;;;;;;;;29.25;27.75;;;;;;;;5020413;28;8743;-65
2022/05/01 08:51:07;;;;;;;;;32.75;27.00;;;;;;;;5017049;28;8767;-65
2022/05/01 08:53:34;;;;;;;;;27.25;27.25;;;;;;;;5005901;28;8796;-65
2022/05/01 08:56:01;;;;;;;;;29.50;26.50;;;;;;;;4979817;28;8791;-65
2022/05/01 08:58:27;;;;;;;;;26.50;21.75;;;;;;;;4996540;28;8758;-64
2022/05/01 09:00:54;;;;;;;;;27.25;26.75;;;;;;;;4997575;28;8725;-65
2022/05/01 09:03:21;;;;;;;;;29.75;26.50;;;;;;;;4979650;28;8765;-64
2022/05/01 09:05:47;;;;;;;;;23.75;22.25;;;;;;;;4979624;28;8851;-65
2022/05/01 09:08:14;;;;;;;;;32.75;28.00;;;;;;;;5004709;28;8739;-65
2022/05/01 09:10:41;;;;;;;;;26.00;24.50;;;;;;;;5016674;28;8809;-65
2022/05/01 09:13:08;;;;;;;;;29.25;28.00;;;;;;;;5015853;28;8775;-65
2022/05/01 09:15:36;;;;;;;;;30.25;27.50;;;;;;;;5016608;28;8751;-65
2022/05/01 09:18:08;;;;;;;;;35.00;28.75;;;;;;;;5015062;28;9404;-65
2022/05/01 09:20:38;;;;;;;;;31.50;27.75;;;;;;;;5014860;28;8759;-65
2022/05/01 09:23:06;;;;;;;;;26.50;24.50;;;;;;;;5009889;28;8784;-65
2022/05/01 09:25:32;;;;;;;;;32.25;29.00;;;;;;;;4996549;28;8770;-65
2022/05/01 09:28:01;;;;;;;;;30.75;24.75;;;;;;;;4997318;28;8772;-65
2022/05/01 09:30:31;;;;;;;;;26.00;24.00;;;;;;;;4998137;28;8745;-65
2022/05/01 09:32:59;;;;;;;;;27.00;22.00;;;;;;;;5000779;28;8761;-65
2022/05/01 09:35:32;;;;;;;;;33.00;27.50;;;;;;;;4999099;28;8761;-65
2022/05/01 09:38:18;;;;;;;;;27.75;27.25;;;;;;;;5006241;28;8757;-65
2022/05/01 09:40:49;;;;;;;;;29.50;24.00;;;;;;;;5035416;28;8811;-65
2022/05/01 09:43:34;;;;;;;;;29.50;26.00;;;;;;;;5019288;28;8848;-66
2022/05/01 09:46:17;;;;;;;;;33.75;27.50;;;;;;;;5040010;28;8741;-65
2022/05/01 09:48:45;;;;;;;;;31.00;29.75;;;;;;;;5039896;28;8895;-65
2022/05/01 09:51:18;;;;;;;;;29.25;27.75;;;;;;;;5039704;28;8809;-65
2022/05/01 09:53:45;;;;;;;;;34.25;26.75;;;;;;;;5022007;28;8781;-65
2022/05/01 09:56:12;;;;;;;;;26.00;23.75;;;;;;;;5030715;28;8809;-66
2022/05/01 09:58:40;;;;;;;;;31.25;29.50;;;;;;;;5039359;28;9393;-65
2022/05/01 10:01:13;;;;;;;;;29.25;27.25;;;;;;;;5022428;28;8892;-65
2022/05/01 10:03:41;;;;;;;;;32.00;27.25;;;;;;;;5039281;28;8772;-65
2022/05/01 10:06:11;;;;;;;;;28.00;27.00;;;;;;;;5039541;28;8883;-65
2022/05/01 10:08:39;;;;;;;;;31.25;26.25;;;;;;;;5038951;28;8801;-65
2022/05/01 10:11:05;;;;;;;;;31.50;28.00;;;;;;;;5038145;28;8835;-65
2022/05/01 10:13:32;;;;;;;;;27.50;27.00;;;;;;;;5021414;28;8817;-65
2022/05/01 10:16:00;;;;;;;;;27.50;25.00;;;;;;;;5039783;28;8772;-65
2022/05/01 10:18:27;;;;;;;;;30.50;25.75;;;;;;;;5039224;28;8753;-65
2022/05/01 10:20:54;;;;;;;;;33.50;28.50;;;;;;;;5022103;28;8777;-65
2022/05/01 10:23:20;;;;;;;;;27.50;26.25;;;;;;;;5038879;28;8801;-65
2022/05/01 10:25:52;;;;;;;;;35.75;28.25;;;;;;;;5039201;28;8774;-65
2022/05/01 10:28:37;;;;;;;;;33.00;31.50;;;;;;;;5039484;28;8789;-64
2022/05/01 10:33:52;;;;;;;;;38.00;32.25;;;;;;;;5038801;28;9419;-65
2022/05/01 10:36:25;;;;;;;;;49.25;38.25;;;;;;;;5039043;28;8781;-64
2022/05/01 10:38:58;;;;;;;;;43.75;36.75;;;;;;;;5038617;28;8768;-65
2022/05/01 10:41:25;;;;;;;;;42.75;35.75;;;;;;;;5037223;28;8776;-65
2022/05/01 10:43:55;;;;;;;;;48.50;38.75;;;;;;;;5028737;28;8781;-65
2022/05/01 10:46:22;;;;;;;;;63.00;49.25;;;;;;;;5039286;28;8741;-65
2022/05/01 10:48:49;;;;;;;;;81.40;70.20;;;;;;;;5038562;28;8748;-65
2022/05/01 10:51:31;;;;;;;;;116.00;103.40;;;;;;;;5006171;28;8767;-65
2022/05/01 10:54:13;;;;;;;;;160.75;129.25;;;;;;;;5005265;28;8757;-65
2022/05/01 10:56:40;;;;;;;;;87.60;73.40;;;;;;;;5018866;28;8755;-65
2022/05/01 10:59:25;;;;;;;;;78.20;58.20;;;;;;;;5017415;28;8790;-65
2022/05/01 11:01:52;;;;;;;;;77.80;63.60;;;;;;;;5015194;28;8756;-66
2022/05/01 11:04:22;;;;;;;;;75.60;61.80;;;;;;;;5014253;28;8746;-64
2022/05/01 11:06:52;;;;;;;;;72.40;54.00;;;;;;;;4998769;28;9429;-65
2022/05/01 11:09:23;;;;;;;;;57.00;44.50;;;;;;;;5029215;28;8772;-65
2022/05/01 11:11:58;;;;;;;;;54.25;43.00;;;;;;;;5020316;28;8796;-65
2022/05/01 11:14:35;;;;;;;;;51.50;40.00;;;;;;;;5038166;28;8881;-65
2022/05/01 11:17:02;;;;;;;;;42.50;35.25;;;;;;;;5038521;28;8788;-65
2022/05/01 11:19:32;;;;;;;;;45.75;39.00;;;;;;;;5001118;28;8764;-64
2022/05/01 11:21:59;;;;;;;;;44.75;34.75;;;;;;;;5017282;28;8751;-66
2022/05/01 11:24:42;;;;;;;;;45.75;38.00;;;;;;;;5017932;28;8836;-65
2022/05/01 11:27:13;;;;;;;;;45.50;38.50;;;;;;;;5018535;28;8880;-65
2022/05/01 11:29:40;;;;;;;;;43.50;37.00;;;;;;;;5017866;28;8799;-65
2022/05/01 11:32:19;;;;;;;;;43.00;35.25;;;;;;;;5014406;28;8763;-66
2022/05/01 11:34:55;;;;;;;;;51.25;40.00;;;;;;;;5036797;28;8799;-65
2022/05/01 11:37:22;;;;;;;;;50.25;42.00;;;;;;;;5038578;28;8832;-65
2022/05/01 11:39:49;;;;;;;;;47.00;39.50;;;;;;;;5037679;28;8804;-65
2022/05/01 11:42:29;;;;;;;;;41.50;34.75;;;;;;;;5037835;28;8742;-65
2022/05/01 11:44:59;;;;;;;;;47.75;39.50;;;;;;;;5038053;28;8783;-66
2022/05/01 11:47:26;;;;;;;;;47.50;38.25;;;;;;;;5037580;28;8792;-65
2022/05/01 11:49:53;;;;;;;;;47.50;39.00;;;;;;;;5037463;28;9430;-65
2022/05/01 11:52:22;;;;;;;;;49.25;39.75;;;;;;;;5019743;28;8784;-64
2022/05/01 11:54:53;;;;;;;;;45.00;38.00;;;;;;;;5035829;28;8765;-65
2022/05/01 12:03:05;;;;;;;;;50.00;40.75;;;;;;;;5024194;28;8837;-65
2022/05/01 12:05:32;;;;;;;;;53.25;42.50;;;;;;;;5016125;28;8791;-65
2022/05/01 12:07:59;;;;;;;;;53.75;42.25;;;;;;;;5010344;28;8868;-65
2022/05/01 12:10:26;;;;;;;;;53.00;44.00;;;;;;;;4980212;28;8776;-64
2022/05/01 12:12:53;;;;;;;;;52.50;42.75;;;;;;;;4997951;28;8887;-65
2022/05/01 12:15:20;;;;;;;;;51.50;40.75;;;;;;;;4997631;28;8741;-64
2022/05/01 12:17:46;;;;;;;;;51.25;42.50;;;;;;;;4997860;28;8761;-65
2022/05/01 12:20:13;;;;;;;;;51.50;41.75;;;;;;;;4997697;28;8769;-65
2022/05/01 12:22:40;;;;;;;;;52.75;43.00;;;;;;;;5001480;28;8763;-66
2022/05/01 12:25:12;;;;;;;;;59.00;44.75;;;;;;;;5017881;28;8739;-65
2022/05/01 12:27:42;;;;;;;;;61.80;50.00;;;;;;;;5017290;28;8801;-65
2022/05/01 12:30:09;;;;;;;;;61.00;48.00;;;;;;;;5017046;28;8803;-65
2022/05/01 12:32:37;;;;;;;;;62.00;49.80;;;;;;;;5015503;28;8799;-65
2022/05/01 12:35:04;;;;;;;;;63.80;50.00;;;;;;;;5017169;28;8766;-65
2022/05/01 12:37:38;;;;;;;;;58.80;47.40;;;;;;;;5014852;28;8978;-65
2022/05/01 12:40:09;;;;;;;;;61.60;47.40;;;;;;;;4996903;28;8832;-65
2022/05/01 12:46:01;;;;;;;;;45.75;38.25;;;;;;;;4997255;28;8801;-65
2022/05/01 12:48:28;;;;;;;;;43.75;35.50;;;;;;;;5005151;28;8784;-65
2022/05/01 12:50:54;;;;;;;;;48.25;39.75;;;;;;;;5016744;28;8784;-65
2022/05/01 12:53:27;;;;;;;;;45.00;36.50;;;;;;;;5024791;28;8812;-65
2022/05/01 12:55:54;;;;;;;;;47.25;38.25;;;;;;;;5036267;28;8864;-65
2022/05/01 12:58:28;;;;;;;;;43.50;35.25;;;;;;;;5035811;28;8750;-64
2022/05/01 13:00:55;;;;;;;;;51.25;42.75;;;;;;;;5036907;28;8778;-65
2022/05/01 13:03:27;;;;;;;;;55.50;44.25;;;;;;;;5036441;28;8769;-65
2022/05/01 13:06:01;;;;;;;;;53.75;42.25;;;;;;;;5039844;28;8777;-65
2022/05/01 13:08:30;;;;;;;;;48.50;39.75;;;;;;;;5040943;28;8791;-65
2022/05/01 13:11:12;;;;;;;;;49.25;39.25;;;;;;;;5041091;28;8773;-65
2022/05/01 13:13:42;;;;;;;;;48.50;37.75;;;;;;;;5040860;28;8841;-65
2022/05/01 13:16:10;;;;;;;;;51.75;42.00;;;;;;;;5041583;28;8770;-65
2022/05/01 13:18:37;;;;;;;;;45.00;37.25;;;;;;;;5040775;28;8958;-65
2022/05/01 13:21:07;;;;;;;;;50.75;42.25;;;;;;;;5023314;28;8761;-65
2022/05/01 13:23:34;;;;;;;;;52.00;42.00;;;;;;;;5022356;28;8761;-65
2022/05/01 13:26:01;;;;;;;;;53.50;41.75;;;;;;;;5040556;28;8773;-65
2022/05/01 13:28:29;;;;;;;;;49.25;40.25;;;;;;;;5035333;28;8793;-65
2022/05/01 13:30:56;;;;;;;;;52.00;41.50;;;;;;;;5020184;28;8744;-65
2022/05/01 13:33:23;;;;;;;;;50.50;39.75;;;;;;;;5020401;28;9474;-65
2022/05/01 13:35:53;;;;;;;;;51.00;41.75;;;;;;;;5019309;28;8782;-65
2022/05/01 13:38:20;;;;;;;;;56.50;43.75;;;;;;;;5019213;28;8775;-64
2022/05/01 13:46:17;;;;;;;;;45.00;36.00;;;;;;;;5020859;28;8731;-65
2022/05/01 13:48:43;;;;;;;;;49.00;39.50;;;;;;;;5020255;28;8765;-65
2022/05/01 13:51:10;;;;;;;;;44.25;36.75;;;;;;;;5002760;28;8937;-65
2022/05/01 13:53:37;;;;;;;;;42.75;35.50;;;;;;;;5019985;28;8794;-65
2022/05/01 13:56:04;;;;;;;;;43.00;37.25;;;;;;;;5020102;28;8821;-65
2022/05/01 13:58:31;;;;;;;;;45.50;37.25;;;;;;;;5019746;28;8806;-65
2022/05/01 14:00:58;;;;;;;;;47.75;37.00;;;;;;;;5020679;28;8732;-65
2022/05/01 14:03:25;;;;;;;;;41.25;33.25;;;;;;;;5020003;28;8786;-64
2022/05/01 14:05:51;;;;;;;;;49.75;41.25;;;;;;;;5020252;28;9350;-65
2022/05/01 14:08:18;;;;;;;;;43.00;36.75;;;;;;;;5019556;28;8766;-64
2022/05/01 14:10:45;;;;;;;;;42.75;33.50;;;;;;;;5019779;28;8795;-65
2022/05/01 14:13:12;;;;;;;;;44.00;36.50;;;;;;;;5019988;28;8843;-65
2022/05/01 14:15:39;;;;;;;;;41.75;35.25;;;;;;;;5019087;28;8831;-65
2022/05/01 14:18:06;;;;;;;;;42.50;36.00;;;;;;;;5019729;28;8885;-65
2022/05/01 14:20:33;;;;;;;;;47.75;37.00;;;;;;;;5018336;28;8898;-65
2022/05/01 14:23:04;;;;;;;;;40.00;35.25;;;;;;;;5019473;28;8763;-65
2022/05/01 14:25:31;;;;;;;;;42.00;34.75;;;;;;;;5019052;28;8885;-65
2022/05/01 14:27:57;;;;;;;;;40.25;32.75;;;;;;;;5020625;28;8747;-65
2022/05/01 14:30:24;;;;;;;;;43.00;35.33;;;;;;;;5039239;28;8773;-65
2022/05/01 14:32:56;;;;;;;;;37.75;30.75;;;;;;;;5040457;28;8831;-65
2022/05/01 14:35:24;;;;;;;;;43.00;36.75;;;;;;;;5038742;28;8773;-65
2022/05/01 14:37:58;;;;;;;;;41.75;32.75;;;;;;;;5021949;28;8781;-65
2022/05/01 14:40:27;;;;;;;;;47.50;37.25;;;;;;;;5038517;28;8767;-61
2022/05/01 14:42:54;;;;;;;;;46.50;36.25;;;;;;;;5040234;28;8765;-65
2022/05/01 14:45:26;;;;;;;;;40.75;34.75;;;;;;;;5021516;28;9104;-64
2022/05/01 14:47:53;;;;;;;;;39.50;34.25;;;;;;;;5038978;28;8745;-65
2022/05/01 14:50:19;;;;;;;;;44.00;36.00;;;;;;;;5039028;28;8839;-64
2022/05/01 14:52:48;;;;;;;;;50.75;39.50;;;;;;;;5039018;28;8788;-65
2022/05/01 14:55:15;;;;;;;;;42.75;36.50;;;;;;;;5021911;28;8843;-65
2022/05/01 14:57:45;;;;;;;;;43.75;35.50;;;;;;;;5022036;28;8749;-65
2022/05/01 15:08:28;;;;;;;;;34.00;30.25;;;;;;;;5038071;28;8757;-65
2022/05/01 15:10:55;;;;;;;;;43.25;35.75;;;;;;;;5038300;28;8903;-65
2022/05/01 15:13:22;;;;;;;;;41.75;34.75;;;;;;;;5038337;28;8829;-65
2022/05/01 15:15:52;;;;;;;;;46.00;36.00;;;;;;;;5038141;28;8765;-66
2022/05/01 15:18:22;;;;;;;;;44.00;34.75;;;;;;;;5020308;28;8734;-64
2022/05/01 15:20:52;;;;;;;;;42.00;34.75;;;;;;;;5020538;28;8761;-65
2022/05/01 15:23:31;;;;;;;;;40.50;33.00;;;;;;;;5010360;28;8804;-64
2022/05/01 15:26:00;;;;;;;;;43.50;37.75;;;;;;;;5020575;28;8792;-65